createdAt,value
2018-12-07T00:00:07.471Z,96.47
2018-12-07T00:01:07.459Z,96.37
2018-12-07T00:02:07.447Z,96.62
2018-12-07T00:03:07.435Z,96.42
2018-12-07T00:04:07.445Z,96.62
2018-12-07T00:05:07.413Z,96.83
2018-12-07T00:06:07.402Z,96.72
2018-12-07T00:07:07.390Z,96.31
2018-12-07T00:08:07.377Z,96.88
2018-12-07T00:09:07.410Z,96.62
2018-12-07T00:10:07.354Z,96.37
2018-12-07T00:11:07.345Z,96.51
2018-12-07T00:12:07.331Z,96.62
2018-12-07T00:13:07.321Z,96.72
2018-12-07T00:14:07.307Z,96.62
2018-12-07T00:15:07.317Z,96.37
2018-12-07T00:16:07.283Z,96.51
2018-12-07T00:17:07.270Z,96.31
2018-12-07T00:18:07.259Z,96.92
2018-12-07T00:19:07.248Z,96.42
2018-12-07T00:20:07.254Z,96.42
2018-12-07T00:21:07.224Z,96.72
2018-12-07T00:22:07.213Z,96.51
2018-12-07T00:23:07.203Z,96.37
2018-12-07T00:24:07.196Z,96.51
2018-12-07T00:25:07.202Z,96.31
2018-12-07T00:26:07.167Z,95.90
2018-12-07T00:27:07.154Z,96.21
2018-12-07T00:28:07.140Z,96.72
2018-12-07T00:29:07.128Z,96.92
2018-12-07T00:30:07.119Z,96.31
2018-12-07T00:31:07.125Z,96.42
2018-12-07T00:32:07.093Z,96.01
2018-12-07T00:33:07.088Z,96.42
2018-12-07T00:34:07.084Z,96.11
2018-12-07T00:35:07.058Z,96.15
2018-12-07T00:36:07.066Z,96.31
2018-12-07T00:37:07.036Z,95.70
2018-12-07T00:38:07.024Z,95.75
2018-12-07T00:39:07.017Z,96.51
2018-12-07T00:40:07.004Z,95.50
2018-12-07T00:41:07.006Z,96.56
2018-12-07T00:42:06.978Z,96.56
2018-12-07T00:43:06.966Z,96.15
2018-12-07T00:44:06.954Z,95.85
2018-12-07T00:45:06.942Z,95.85
2018-12-07T00:46:06.959Z,96.56
2018-12-07T00:47:06.921Z,96.01
2018-12-07T00:48:06.907Z,95.85
2018-12-07T00:49:06.897Z,95.85
2018-12-07T00:50:06.883Z,96.36
2018-12-07T00:51:06.895Z,96.26
2018-12-07T00:52:06.860Z,96.67
2018-12-07T00:53:06.848Z,96.46
2018-12-07T00:54:06.838Z,95.95
2018-12-07T00:55:06.825Z,96.15
2018-12-07T00:56:06.813Z,96.26
2018-12-07T00:57:06.822Z,96.26
2018-12-07T00:58:06.796Z,96.56
2018-12-07T00:59:06.779Z,95.85
2018-12-07T01:00:06.766Z,95.75
2018-12-07T01:01:06.775Z,96.67
2018-12-07T01:02:06.742Z,96.56
2018-12-07T01:03:06.733Z,96.77
2018-12-07T01:04:06.720Z,96.46
2018-12-07T01:05:06.709Z,96.87
2018-12-07T01:06:06.720Z,96.46
2018-12-07T01:07:06.684Z,96.05
2018-12-07T01:08:06.674Z,96.26
2018-12-07T01:09:06.667Z,96.05
2018-12-07T01:10:07.521Z,96.46
2018-12-07T01:11:06.679Z,96.26
2018-12-07T01:12:06.628Z,96.05
2018-12-07T01:13:06.615Z,95.64
2018-12-07T01:14:06.603Z,95.75
2018-12-07T01:15:06.591Z,96.05
2018-12-07T01:16:06.599Z,95.95
2018-12-07T01:17:06.571Z,95.75
2018-12-07T01:18:06.555Z,95.85
2018-12-07T01:19:06.544Z,96.46
2018-12-07T01:20:06.537Z,96.21
2018-12-07T01:21:06.545Z,95.95
2018-12-07T01:22:06.509Z,96.15
2018-12-07T01:23:06.498Z,96.05
2018-12-07T01:24:06.488Z,96.26
2018-12-07T01:25:06.475Z,96.05
2018-12-07T01:26:06.462Z,96.26
2018-12-07T01:27:06.470Z,96.56
2018-12-07T01:28:06.440Z,95.85
2018-12-07T01:29:06.430Z,96.56
2018-12-07T01:30:06.419Z,96.56
2018-12-07T01:31:06.409Z,95.75
2018-12-07T01:32:06.411Z,96.36
2018-12-07T01:33:06.382Z,96.26
2018-12-07T01:34:06.369Z,96.36
2018-12-07T01:35:06.359Z,96.46
2018-12-07T01:36:06.348Z,95.85
2018-12-07T01:37:06.362Z,96.26
2018-12-07T01:38:06.325Z,96.15
2018-12-07T01:39:06.314Z,96.36
2018-12-07T01:40:06.300Z,96.26
2018-12-07T01:41:06.290Z,96.36
2018-12-07T01:42:06.280Z,95.85
2018-12-07T01:43:06.282Z,96.36
2018-12-07T01:44:06.257Z,95.75
2018-12-07T01:45:06.243Z,96.05
2018-12-07T01:46:06.230Z,96.05
2018-12-07T01:47:06.217Z,96.26
2018-12-07T01:48:06.223Z,96.15
2018-12-07T01:49:06.195Z,96.67
2018-12-07T01:50:06.184Z,96.21
2018-12-07T01:51:06.174Z,96.26
2018-12-07T01:52:06.161Z,95.95
2018-12-07T01:53:06.167Z,96.36
2018-12-07T01:54:06.138Z,96.15
2018-12-07T01:55:06.122Z,96.26
2018-12-07T01:56:06.114Z,96.15
2018-12-07T01:57:06.100Z,95.64
2018-12-07T01:58:06.108Z,95.60
2018-12-07T01:59:06.076Z,95.19
2018-12-07T02:00:06.070Z,95.54
2018-12-07T02:01:06.053Z,95.44
2018-12-07T02:02:06.043Z,95.34
2018-12-07T02:03:06.050Z,95.44
2018-12-07T02:04:06.021Z,95.44
2018-12-07T02:05:06.007Z,95.34
2018-12-07T02:06:05.996Z,95.54
2018-12-07T02:07:05.983Z,95.34
2018-12-07T02:08:05.994Z,95.23
2018-12-07T02:09:05.961Z,95.50
2018-12-07T02:10:05.956Z,95.44
2018-12-07T02:11:05.937Z,95.60
2018-12-07T02:12:05.927Z,95.50
2018-12-07T02:13:05.915Z,95.80
2018-12-07T02:14:05.921Z,95.75
2018-12-07T02:15:06.531Z,95.70
2018-12-07T02:16:05.879Z,95.75
2018-12-07T02:17:05.871Z,95.85
2018-12-07T02:18:05.856Z,96.05
2018-12-07T02:19:05.872Z,96.46
2018-12-07T02:20:05.832Z,95.85
2018-12-07T02:21:05.819Z,96.36
2018-12-07T02:22:05.809Z,96.36
2018-12-07T02:23:05.798Z,95.95
2018-12-07T02:24:05.808Z,96.87
2018-12-07T02:25:05.773Z,96.26
2018-12-07T02:26:05.763Z,96.31
2018-12-07T02:27:05.750Z,96.26
2018-12-07T02:28:05.747Z,96.77
2018-12-07T02:29:05.729Z,96.26
2018-12-07T02:30:05.746Z,97.08
2018-12-07T02:31:05.704Z,96.36
2018-12-07T02:32:05.697Z,96.36
2018-12-07T02:33:05.682Z,97.38
2018-12-07T02:34:05.668Z,96.56
2018-12-07T02:35:05.680Z,96.97
2018-12-07T02:36:05.647Z,96.77
2018-12-07T02:37:05.636Z,96.56
2018-12-07T02:38:05.625Z,96.31
2018-12-07T02:39:05.610Z,96.46
2018-12-07T02:40:05.619Z,96.46
2018-12-07T02:41:05.590Z,96.97
2018-12-07T02:42:05.576Z,96.36
2018-12-07T02:43:05.576Z,97.58
2018-12-07T02:44:05.554Z,97.49
2018-12-07T02:45:05.563Z,97.17
2018-12-07T02:46:05.531Z,97.28
2018-12-07T02:47:05.520Z,97.28
2018-12-07T02:48:05.534Z,97.17
2018-12-07T02:49:05.498Z,97.49
2018-12-07T02:50:05.484Z,97.58
2018-12-07T02:51:05.474Z,97.08
2018-12-07T02:52:05.461Z,97.58
2018-12-07T02:53:05.458Z,97.33
2018-12-07T02:54:05.461Z,97.17
2018-12-07T02:55:05.427Z,97.08
2018-12-07T02:56:05.413Z,97.38
2018-12-07T02:57:05.406Z,97.17
2018-12-07T02:58:05.390Z,97.08
2018-12-07T02:59:12.457Z,96.97
2018-12-07T03:00:05.369Z,97.58
2018-12-07T03:01:05.357Z,97.17
2018-12-07T03:02:05.343Z,97.28
2018-12-07T03:03:05.331Z,96.67
2018-12-07T03:04:05.319Z,96.67
2018-12-07T03:05:05.329Z,97.49
2018-12-07T03:06:05.298Z,96.46
2018-12-07T03:07:05.288Z,96.77
2018-12-07T03:08:05.273Z,96.67
2018-12-07T03:09:05.262Z,96.46
2018-12-07T03:10:05.281Z,96.67
2018-12-07T03:11:05.240Z,96.36
2018-12-07T03:12:05.230Z,96.77
2018-12-07T03:13:05.217Z,96.56
2018-12-07T03:14:05.204Z,96.46
2018-12-07T03:15:05.197Z,96.15
2018-12-07T03:16:05.213Z,96.97
2018-12-07T03:17:05.173Z,97.38
2018-12-07T03:18:05.158Z,96.87
2018-12-07T03:19:05.146Z,96.67
2018-12-07T03:20:05.137Z,96.36
2018-12-07T03:21:05.123Z,96.83
2018-12-07T03:22:05.139Z,97.28
2018-12-07T03:23:05.102Z,96.97
2018-12-07T03:24:05.092Z,97.13
2018-12-07T03:25:05.078Z,97.08
2018-12-07T03:26:05.070Z,97.28
2018-12-07T03:27:05.055Z,97.17
2018-12-07T03:28:05.062Z,97.17
2018-12-07T03:29:05.104Z,97.38
2018-12-07T03:30:05.025Z,97.08
2018-12-07T03:31:05.010Z,97.58
2018-12-07T03:32:04.997Z,97.08
2018-12-07T03:33:05.021Z,97.38
2018-12-07T03:34:04.982Z,97.69
2018-12-07T03:35:04.962Z,96.87
2018-12-07T03:36:04.953Z,97.38
2018-12-07T03:37:04.939Z,97.38
2018-12-07T03:38:04.929Z,97.17
2018-12-07T03:39:04.941Z,96.87
2018-12-07T03:40:04.907Z,97.79
2018-12-07T03:41:04.891Z,97.58
2018-12-07T03:42:04.882Z,96.87
2018-12-07T03:43:04.870Z,97.49
2018-12-07T03:44:04.874Z,96.97
2018-12-07T03:45:04.865Z,97.17
2018-12-07T03:46:04.835Z,97.08
2018-12-07T03:47:04.823Z,96.97
2018-12-07T03:48:04.812Z,97.17
2018-12-07T03:49:04.797Z,96.56
2018-12-07T03:50:04.815Z,97.38
2018-12-07T03:51:04.775Z,96.97
2018-12-07T03:52:04.765Z,96.31
2018-12-07T03:53:04.750Z,96.51
2018-12-07T03:54:04.741Z,96.87
2018-12-07T03:55:04.734Z,97.44
2018-12-07T03:56:04.740Z,96.51
2018-12-07T03:57:04.705Z,97.17
2018-12-07T03:58:04.694Z,97.03
2018-12-07T03:59:04.683Z,96.77
2018-12-07T04:00:04.698Z,97.38
2018-12-07T04:01:04.674Z,96.67
2018-12-07T04:02:04.664Z,96.36
2018-12-07T04:03:04.637Z,97.33
2018-12-07T04:04:04.624Z,96.21
2018-12-07T04:05:04.611Z,97.08
2018-12-07T04:06:04.598Z,96.01
2018-12-07T04:07:04.616Z,96.56
2018-12-07T04:08:04.583Z,96.77
2018-12-07T04:09:04.564Z,96.42
2018-12-07T04:10:04.553Z,96.42
2018-12-07T04:11:04.541Z,96.51
2018-12-07T04:12:04.549Z,96.72
2018-12-07T04:13:04.541Z,96.92
2018-12-07T04:14:04.507Z,96.87
2018-12-07T04:15:04.497Z,97.13
2018-12-07T04:16:04.560Z,96.72
2018-12-07T04:17:04.480Z,96.83
2018-12-07T04:18:04.460Z,96.51
2018-12-07T04:19:04.493Z,96.56
2018-12-07T04:20:04.438Z,96.72
2018-12-07T04:21:04.426Z,96.72
2018-12-07T04:22:04.414Z,96.51
2018-12-07T04:23:04.402Z,96.42
2018-12-07T04:24:04.388Z,96.46
2018-12-07T04:25:04.397Z,96.11
2018-12-07T04:26:04.371Z,96.21
2018-12-07T04:27:04.354Z,96.01
2018-12-07T04:28:04.354Z,96.62
2018-12-07T04:29:04.331Z,96.56
2018-12-07T04:30:04.344Z,96.77
2018-12-07T04:31:04.312Z,96.77
2018-12-07T04:32:04.298Z,96.56
2018-12-07T04:33:04.284Z,96.21
2018-12-07T04:34:04.276Z,96.62
2018-12-07T04:35:04.268Z,96.51
2018-12-07T04:36:07.509Z,96.42
2018-12-07T04:37:04.240Z,96.31
2018-12-07T04:38:04.228Z,96.31
2018-12-07T04:39:04.224Z,96.01
2018-12-07T04:40:04.204Z,96.62
2018-12-07T04:41:04.194Z,96.36
2018-12-07T04:42:04.207Z,96.42
2018-12-07T04:43:04.181Z,96.83
2018-12-07T04:44:04.160Z,96.31
2018-12-07T04:45:04.152Z,96.72
2018-12-07T04:46:04.136Z,96.21
2018-12-07T04:47:04.168Z,96.87
2018-12-07T04:48:04.117Z,96.83
2018-12-07T04:49:04.101Z,96.31
2018-12-07T04:50:04.091Z,96.83
2018-12-07T04:51:04.084Z,96.62
2018-12-07T04:52:04.069Z,96.72
2018-12-07T04:53:04.094Z,96.01
2018-12-07T04:54:04.049Z,96.72
2018-12-07T04:55:04.032Z,97.24
2018-12-07T04:56:04.020Z,97.38
2018-12-07T04:57:04.009Z,97.13
2018-12-07T04:58:03.995Z,97.13
2018-12-07T04:59:04.006Z,96.97
2018-12-07T05:00:03.973Z,97.49
2018-12-07T05:01:03.961Z,97.03
2018-12-07T05:02:03.950Z,97.24
2018-12-07T05:03:03.937Z,97.33
2018-12-07T05:04:03.972Z,96.97
2018-12-07T05:05:03.916Z,97.64
2018-12-07T05:06:03.906Z,97.58
2018-12-07T05:07:03.898Z,96.87
2018-12-07T05:08:03.880Z,97.13
2018-12-07T05:09:03.869Z,96.97
2018-12-07T05:10:03.901Z,96.92
2018-12-07T05:11:03.851Z,97.44
2018-12-07T05:12:03.841Z,97.03
2018-12-07T05:13:03.821Z,97.03
2018-12-07T05:14:03.809Z,96.72
2018-12-07T05:15:03.800Z,97.03
2018-12-07T05:16:03.818Z,96.42
2018-12-07T05:17:03.777Z,96.01
2018-12-07T05:18:03.768Z,96.83
2018-12-07T05:19:03.752Z,96.83
2018-12-07T05:20:03.740Z,97.38
2018-12-07T05:21:03.732Z,97.03
2018-12-07T05:22:03.750Z,97.17
2018-12-07T05:23:03.708Z,96.83
2018-12-07T05:24:03.696Z,97.13
2018-12-07T05:25:03.684Z,97.28
2018-12-07T05:26:03.674Z,97.33
2018-12-07T05:27:03.660Z,97.28
2018-12-07T05:28:03.682Z,96.97
2018-12-07T05:29:03.641Z,97.33
2018-12-07T05:30:03.626Z,97.69
2018-12-07T05:31:03.619Z,97.03
2018-12-07T05:32:03.604Z,96.77
2018-12-07T05:33:03.598Z,97.08
2018-12-07T05:34:03.597Z,96.62
2018-12-07T05:35:03.568Z,96.46
2018-12-07T05:36:03.556Z,97.17
2018-12-07T05:37:03.545Z,97.13
2018-12-07T05:38:03.536Z,96.92
2018-12-07T05:39:03.547Z,96.77
2018-12-07T05:40:03.512Z,97.49
2018-12-07T05:41:03.497Z,97.13
2018-12-07T05:42:03.495Z,97.17
2018-12-07T05:43:03.474Z,97.49
2018-12-07T05:44:03.465Z,97.38
2018-12-07T05:45:03.493Z,97.28
2018-12-07T05:46:03.447Z,97.28
2018-12-07T05:47:03.428Z,97.17
2018-12-07T05:48:03.416Z,97.49
2018-12-07T05:49:03.407Z,97.89
2018-12-07T05:50:03.393Z,97.89
2018-12-07T05:51:03.404Z,97.79
2018-12-07T05:52:03.371Z,97.38
2018-12-07T05:53:03.359Z,97.99
2018-12-07T05:54:03.346Z,98.50
2018-12-07T05:55:03.334Z,98.10
2018-12-07T05:56:03.363Z,98.20
2018-12-07T05:57:03.312Z,97.89
2018-12-07T05:58:03.304Z,97.79
2018-12-07T05:59:03.286Z,97.13
2018-12-07T06:00:03.279Z,97.17
2018-12-07T06:01:03.269Z,97.13
2018-12-07T06:02:03.275Z,97.38
2018-12-07T06:03:03.241Z,97.28
2018-12-07T06:04:03.230Z,97.28
2018-12-07T06:05:03.218Z,97.69
2018-12-07T06:06:03.206Z,97.99
2018-12-07T06:07:03.205Z,97.38
2018-12-07T06:08:03.208Z,97.28
2018-12-07T06:09:03.175Z,97.79
2018-12-07T06:10:03.159Z,97.58
2018-12-07T06:11:03.148Z,97.17
2018-12-07T06:12:03.137Z,97.08
2018-12-07T06:13:03.124Z,97.79
2018-12-07T06:14:03.132Z,97.08
2018-12-07T06:15:03.102Z,97.24
2018-12-07T06:16:03.092Z,96.72
2018-12-07T06:17:03.076Z,97.13
2018-12-07T06:18:03.067Z,97.44
2018-12-07T06:19:03.093Z,97.38
2018-12-07T06:20:03.042Z,97.54
2018-12-07T06:21:03.030Z,97.17
2018-12-07T06:22:03.018Z,97.49
2018-12-07T06:23:03.016Z,97.08
2018-12-07T06:24:02.996Z,97.08
2018-12-07T06:25:03.013Z,96.87
2018-12-07T06:26:02.973Z,97.08
2018-12-07T06:27:02.959Z,97.69
2018-12-07T06:28:02.948Z,97.17
2018-12-07T06:29:02.935Z,97.08
2018-12-07T06:30:02.926Z,97.58
2018-12-07T06:31:02.930Z,97.28
2018-12-07T06:32:02.902Z,97.28
2018-12-07T06:33:02.896Z,97.17
2018-12-07T06:34:02.879Z,97.28
2018-12-07T06:35:02.873Z,96.92
2018-12-07T06:36:02.876Z,97.17
2018-12-07T06:37:02.846Z,97.08
2018-12-07T06:38:02.835Z,97.17
2018-12-07T06:39:02.821Z,97.08
2018-12-07T06:40:02.808Z,97.17
2018-12-07T06:41:02.801Z,97.17
2018-12-07T06:42:02.810Z,96.77
2018-12-07T06:43:02.772Z,97.28
2018-12-07T06:44:02.763Z,97.38
2018-12-07T06:45:02.751Z,97.49
2018-12-07T06:46:02.741Z,97.12
2018-12-07T06:47:02.727Z,97.17
2018-12-07T06:48:02.737Z,97.38
2018-12-07T06:49:02.703Z,96.97
2018-12-07T06:50:02.725Z,97.69
2018-12-07T06:51:02.684Z,97.28
2018-12-07T06:52:02.755Z,97.79
2018-12-07T06:53:02.686Z,97.38
2018-12-07T06:54:02.648Z,97.22
2018-12-07T06:55:02.635Z,97.49
2018-12-07T06:56:02.623Z,97.08
2018-12-07T06:57:02.610Z,97.28
2018-12-07T06:58:02.603Z,97.69
2018-12-07T06:59:02.613Z,96.97
2018-12-07T07:00:02.576Z,97.17
2018-12-07T07:01:02.563Z,96.97
2018-12-07T07:02:02.625Z,97.38
2018-12-07T07:03:02.543Z,97.17
2018-12-07T07:04:02.536Z,97.17
2018-12-07T07:05:02.543Z,96.97
2018-12-07T07:06:02.506Z,97.28
2018-12-07T07:07:02.498Z,97.38
2018-12-07T07:08:02.487Z,97.38
2018-12-07T07:09:02.471Z,97.49
2018-12-07T07:10:02.459Z,97.28
2018-12-07T07:11:02.469Z,97.17
2018-12-07T07:12:02.438Z,97.58
2018-12-07T07:13:02.427Z,97.89
2018-12-07T07:14:02.415Z,97.99
2018-12-07T07:15:02.407Z,97.49
2018-12-07T07:16:02.434Z,97.28
2018-12-07T07:17:02.381Z,97.49
2018-12-07T07:18:02.371Z,98.30
2018-12-07T07:19:02.363Z,98.40
2018-12-07T07:20:02.345Z,98.30
2018-12-07T07:21:02.332Z,98.50
2018-12-07T07:22:02.345Z,97.53
2018-12-07T07:23:02.310Z,97.49
2018-12-07T07:24:02.302Z,97.49
2018-12-07T07:25:02.286Z,97.49
2018-12-07T07:26:02.280Z,97.49
2018-12-07T07:27:02.264Z,97.69
2018-12-07T07:28:02.270Z,98.30
2018-12-07T07:29:02.241Z,98.30
2018-12-07T07:30:02.236Z,97.38
2018-12-07T07:31:02.221Z,96.51
2018-12-07T07:32:02.205Z,97.38
2018-12-07T07:33:02.233Z,97.33
2018-12-07T07:34:02.182Z,96.97
2018-12-07T07:35:02.171Z,97.38
2018-12-07T07:36:02.157Z,97.79
2018-12-07T07:37:02.147Z,97.49
2018-12-07T07:38:02.134Z,97.69
2018-12-07T07:39:02.148Z,97.79
2018-12-07T07:40:02.118Z,97.69
2018-12-07T07:41:02.103Z,97.89
2018-12-07T07:42:02.090Z,97.38
2018-12-07T07:43:02.078Z,97.28
2018-12-07T07:44:02.066Z,97.38
2018-12-07T07:45:02.079Z,97.28
2018-12-07T07:46:02.048Z,97.33
2018-12-07T07:47:02.036Z,98.20
2018-12-07T07:48:02.017Z,97.38
2018-12-07T07:49:02.007Z,97.89
2018-12-07T07:50:02.016Z,98.10
2018-12-07T07:51:01.986Z,97.49
2018-12-07T07:52:01.977Z,97.69
2018-12-07T07:53:01.963Z,97.08
2018-12-07T07:54:01.948Z,97.38
2018-12-07T07:55:01.951Z,97.33
2018-12-07T07:56:01.967Z,97.38
2018-12-07T07:57:01.915Z,96.67
2018-12-07T07:58:01.902Z,97.08
2018-12-07T07:59:01.892Z,97.17
2018-12-07T08:00:01.879Z,97.49
2018-12-07T08:01:01.868Z,97.17
2018-12-07T08:02:01.896Z,97.28
2018-12-07T08:03:01.849Z,97.38
2018-12-07T08:04:01.833Z,96.46
2018-12-07T08:05:01.828Z,96.36
2018-12-07T08:06:01.810Z,96.56
2018-12-07T08:07:01.796Z,96.97
2018-12-07T08:08:01.805Z,96.46
2018-12-07T08:09:01.775Z,96.67
2018-12-07T08:10:01.765Z,96.36
2018-12-07T08:11:01.753Z,96.67
2018-12-07T08:12:01.742Z,96.77
2018-12-07T08:13:01.752Z,96.72
2018-12-07T08:14:01.715Z,96.31
2018-12-07T08:15:01.704Z,96.56
2018-12-07T08:16:01.692Z,96.56
2018-12-07T08:17:01.684Z,96.77
2018-12-07T08:18:01.669Z,96.56
2018-12-07T08:19:01.682Z,96.21
2018-12-07T08:20:01.646Z,96.87
2018-12-07T08:21:01.632Z,97.08
2018-12-07T08:22:02.862Z,96.42
2018-12-07T08:23:01.610Z,96.62
2018-12-07T08:24:01.602Z,96.51
2018-12-07T08:25:01.607Z,96.92
2018-12-07T08:26:01.575Z,96.46
2018-12-07T08:27:01.564Z,96.97
2018-12-07T08:28:01.573Z,97.03
2018-12-07T08:29:01.542Z,97.08
2018-12-07T08:30:01.553Z,96.67
2018-12-07T08:31:01.520Z,96.97
2018-12-07T08:32:01.507Z,96.36
2018-12-07T08:33:01.493Z,96.97
2018-12-07T08:34:01.485Z,96.36
2018-12-07T08:35:01.473Z,96.77
2018-12-07T08:36:01.483Z,97.17
2018-12-07T08:37:01.447Z,96.62
2018-12-07T08:38:01.497Z,96.97
2018-12-07T08:39:01.425Z,96.87
2018-12-07T08:40:01.412Z,97.08
2018-12-07T08:41:01.402Z,96.67
2018-12-07T08:42:06.740Z,96.31
2018-12-07T08:43:02.375Z,97.38
2018-12-07T08:44:01.366Z,97.28
2018-12-07T08:45:01.355Z,96.97
2018-12-07T08:46:01.345Z,96.97
2018-12-07T08:47:01.362Z,97.28
2018-12-07T08:48:01.318Z,96.87
2018-12-07T08:49:01.308Z,97.49
2018-12-07T08:50:01.302Z,96.97
2018-12-07T08:51:01.284Z,97.24
2018-12-07T08:52:01.274Z,97.24
2018-12-07T08:53:01.307Z,97.08
2018-12-07T08:54:01.249Z,97.33
2018-12-07T08:55:01.239Z,97.03
2018-12-07T08:56:01.225Z,97.08
2018-12-07T08:57:01.218Z,97.03
2018-12-07T08:58:01.202Z,96.87
2018-12-07T08:59:01.221Z,97.13
2018-12-07T09:00:01.179Z,96.97
2018-12-07T09:01:01.166Z,96.77
2018-12-07T09:02:01.158Z,96.67
2018-12-07T09:03:01.148Z,96.83
2018-12-07T09:04:01.132Z,96.92
2018-12-07T09:05:01.142Z,96.92
2018-12-07T09:06:01.110Z,96.87
2018-12-07T09:07:01.097Z,97.08
2018-12-07T09:08:01.088Z,97.33
2018-12-07T09:09:01.074Z,97.03
2018-12-07T09:10:01.089Z,97.74
2018-12-07T09:11:01.051Z,97.74
2018-12-07T09:12:01.040Z,97.13
2018-12-07T09:13:01.029Z,97.03
2018-12-07T09:14:01.027Z,96.31
2018-12-07T09:15:01.003Z,97.33
2018-12-07T09:16:01.035Z,96.31
2018-12-07T09:17:00.987Z,96.92
2018-12-07T09:18:00.969Z,96.72
2018-12-07T09:19:00.959Z,97.13
2018-12-07T09:20:00.948Z,97.13
2018-12-07T09:21:00.938Z,97.13
2018-12-07T09:22:00.947Z,96.92
2018-12-07T09:23:00.912Z,96.42
2018-12-07T09:24:00.902Z,96.36
2018-12-07T09:25:00.889Z,97.49
2018-12-07T09:26:00.882Z,97.13
2018-12-07T09:27:00.890Z,97.69
2018-12-07T09:28:00.854Z,96.31
2018-12-07T09:29:00.850Z,97.54
2018-12-07T09:30:00.832Z,97.44
2018-12-07T09:31:00.820Z,97.03
2018-12-07T09:32:00.806Z,96.83
2018-12-07T09:33:00.826Z,97.33
2018-12-07T09:34:00.785Z,97.13
2018-12-07T09:35:00.770Z,96.77
2018-12-07T09:36:00.775Z,97.24
2018-12-07T09:37:00.752Z,97.24
2018-12-07T09:38:00.738Z,96.72
2018-12-07T09:39:00.743Z,97.58
2018-12-07T09:40:00.734Z,97.24
2018-12-07T09:41:00.701Z,97.28
2018-12-07T09:42:00.688Z,97.13
2018-12-07T09:43:00.677Z,97.33
2018-12-07T09:44:00.713Z,96.72
2018-12-07T09:45:00.656Z,97.13
2018-12-07T09:46:00.643Z,97.38
2018-12-07T09:47:00.642Z,97.08
2018-12-07T09:48:00.622Z,97.17
2018-12-07T09:49:00.609Z,97.49
2018-12-07T09:50:00.640Z,96.31
2018-12-07T09:51:00.586Z,97.13
2018-12-07T09:52:00.574Z,96.51
2018-12-07T09:53:00.562Z,96.51
2018-12-07T09:54:00.565Z,96.72
2018-12-07T09:55:00.540Z,96.51
2018-12-07T09:56:00.552Z,97.24
2018-12-07T09:57:00.516Z,97.24
2018-12-07T09:58:00.522Z,96.42
2018-12-07T09:59:00.494Z,96.72
2018-12-07T10:00:00.482Z,96.31
2018-12-07T10:01:00.469Z,96.83
2018-12-07T10:02:00.495Z,95.80
2018-12-07T10:03:00.454Z,96.62
2018-12-07T10:04:00.435Z,95.60
2018-12-07T10:05:00.422Z,95.60
2018-12-07T10:06:00.415Z,95.29
2018-12-07T10:07:00.411Z,95.39
2018-12-07T10:08:00.411Z,95.80
2018-12-07T10:09:00.380Z,95.70
2018-12-07T10:10:00.368Z,95.39
2018-12-07T10:11:00.354Z,95.50
2018-12-07T10:12:00.343Z,94.98
2018-12-07T10:13:07.752Z,94.98
2018-12-07T10:14:01.346Z,94.89
2018-12-07T10:15:00.311Z,95.60
2018-12-07T10:16:00.300Z,94.89
2018-12-07T10:17:00.286Z,94.02
2018-12-07T10:18:00.274Z,94.12
2018-12-07T10:19:00.261Z,93.71
2018-12-07T10:20:00.274Z,93.71
2018-12-07T10:21:00.243Z,93.86
2018-12-07T10:22:00.231Z,93.31
2018-12-07T10:23:00.217Z,94.02
2018-12-07T10:24:00.203Z,93.82
2018-12-07T10:25:00.198Z,94.02
2018-12-07T10:26:00.224Z,93.51
2018-12-07T10:27:00.168Z,94.02
2018-12-07T10:28:00.162Z,93.92
2018-12-07T10:29:00.149Z,93.92
2018-12-07T10:30:00.140Z,93.51
2018-12-07T10:31:00.124Z,93.10
2018-12-07T10:32:00.143Z,93.71
2018-12-07T10:33:00.101Z,92.80
2018-12-07T10:34:00.088Z,93.92
2018-12-07T10:35:00.078Z,94.12
2018-12-07T10:36:00.067Z,93.82
2018-12-07T10:37:00.053Z,93.92
2018-12-07T10:38:00.132Z,93.62
2018-12-07T10:39:00.031Z,93.62
2018-12-07T10:40:00.019Z,93.51
2018-12-07T10:41:00.011Z,94.07
2018-12-07T10:42:00.064Z,93.96
2018-12-07T10:42:59.985Z,93.96
2018-12-07T10:43:59.993Z,93.86
2018-12-07T10:44:59.961Z,93.86
2018-12-07T10:45:59.947Z,93.62
2018-12-07T10:46:59.940Z,92.80
2018-12-07T10:47:59.926Z,92.59
2018-12-07T10:48:59.913Z,92.59
2018-12-07T10:49:59.954Z,91.88
2018-12-07T10:50:59.890Z,92.35
2018-12-07T10:51:59.877Z,91.98
2018-12-07T10:52:59.868Z,92.49
2018-12-07T10:53:59.856Z,91.98
2018-12-07T10:54:59.843Z,91.57
2018-12-07T10:55:59.855Z,91.57
2018-12-07T10:56:59.820Z,91.83
2018-12-07T10:57:59.808Z,90.86
2018-12-07T10:58:59.797Z,91.16
2018-12-07T10:59:59.788Z,91.22
2018-12-07T11:00:59.773Z,91.27
2018-12-07T11:01:59.784Z,91.02
2018-12-07T11:02:59.751Z,91.06
2018-12-07T11:03:59.742Z,91.43
2018-12-07T11:04:59.727Z,91.37
2018-12-07T11:05:59.717Z,91.43
2018-12-07T11:06:59.707Z,91.16
2018-12-07T11:07:59.718Z,90.66
2018-12-07T11:08:59.682Z,90.96
2018-12-07T11:09:59.669Z,90.71
2018-12-07T11:10:59.657Z,90.25
2018-12-07T11:11:59.646Z,90.25
2018-12-07T11:12:59.642Z,90.45
2018-12-07T11:13:59.646Z,90.10
2018-12-07T11:14:59.691Z,90.66
2018-12-07T11:15:59.598Z,90.41
2018-12-07T11:16:59.595Z,90.20
2018-12-07T11:17:59.575Z,90.41
2018-12-07T11:18:59.564Z,90.71
2018-12-07T11:19:59.573Z,88.92
2018-12-07T11:20:59.542Z,88.98
2018-12-07T11:21:59.529Z,88.78
2018-12-07T11:22:59.520Z,88.37
2018-12-07T11:23:59.506Z,89.14
2018-12-07T11:24:59.493Z,88.78
2018-12-07T11:25:59.508Z,88.26
2018-12-07T11:26:59.471Z,88.57
2018-12-07T11:27:59.458Z,88.88
2018-12-07T11:28:59.452Z,88.67
2018-12-07T11:29:59.435Z,88.57
2018-12-07T11:30:59.423Z,88.12
2018-12-07T11:31:59.435Z,88.22
2018-12-07T11:32:59.403Z,88.98
2018-12-07T11:33:59.392Z,88.26
2018-12-07T11:34:59.380Z,87.51
2018-12-07T11:35:59.366Z,87.10
2018-12-07T11:36:59.355Z,87.20
2018-12-07T11:37:59.381Z,87.20
2018-12-07T11:38:59.329Z,86.90
2018-12-07T11:39:59.318Z,87.00
2018-12-07T11:40:59.305Z,87.82
2018-12-07T11:41:59.293Z,86.80
2018-12-07T11:42:59.285Z,86.80
2018-12-07T11:43:59.295Z,87.10
2018-12-07T11:44:59.336Z,86.69
2018-12-07T11:45:59.251Z,87.10
2018-12-07T11:46:59.236Z,86.69
2018-12-07T11:47:59.225Z,86.18
2018-12-07T11:48:59.214Z,86.59
2018-12-07T11:49:59.223Z,86.69
2018-12-07T11:50:59.191Z,85.57
2018-12-07T11:51:59.193Z,86.90
2018-12-07T11:52:59.168Z,86.29
2018-12-07T11:53:59.155Z,86.18
2018-12-07T11:54:59.151Z,86.59
2018-12-07T11:55:59.164Z,85.98
2018-12-07T11:56:59.120Z,85.53
2018-12-07T11:57:59.117Z,86.18
2018-12-07T11:58:59.097Z,85.27
2018-12-07T11:59:59.083Z,86.15
2018-12-07T12:00:59.073Z,85.63
2018-12-07T12:01:59.092Z,85.84
2018-12-07T12:02:59.049Z,86.18
2018-12-07T12:03:59.047Z,86.08
2018-12-07T12:04:59.025Z,85.16
2018-12-07T12:05:59.014Z,84.86
2018-12-07T12:06:59.003Z,85.37
2018-12-07T12:07:59.022Z,86.18
2018-12-07T12:08:58.986Z,85.06
2018-12-07T12:09:58.969Z,86.08
2018-12-07T12:10:58.955Z,85.77
2018-12-07T12:11:58.946Z,84.82
2018-12-07T12:12:58.943Z,84.45
2018-12-07T12:13:58.946Z,85.37
2018-12-07T12:14:58.926Z,84.96
2018-12-07T12:15:58.923Z,85.16
2018-12-07T12:16:58.886Z,84.86
2018-12-07T12:17:58.878Z,85.33
2018-12-07T12:18:58.869Z,84.86
2018-12-07T12:19:58.875Z,84.14
2018-12-07T12:20:58.847Z,84.82
2018-12-07T12:21:58.828Z,84.61
2018-12-07T12:22:58.816Z,84.51
2018-12-07T12:23:58.808Z,84.45
2018-12-07T12:24:58.796Z,84.31
2018-12-07T12:25:58.817Z,83.70
2018-12-07T12:26:58.814Z,83.86
2018-12-07T12:27:58.761Z,84.82
2018-12-07T12:28:58.787Z,83.70
2018-12-07T12:29:58.738Z,83.35
2018-12-07T12:30:58.726Z,83.11
2018-12-07T12:31:58.740Z,81.54
2018-12-07T12:32:58.703Z,81.85
2018-12-07T12:33:58.689Z,81.65
2018-12-07T12:34:58.725Z,81.71
2018-12-07T12:35:58.668Z,81.40
2018-12-07T12:36:58.656Z,80.29
2018-12-07T12:37:58.666Z,79.88
2018-12-07T12:38:58.639Z,79.53
2018-12-07T12:39:58.619Z,79.33
2018-12-07T12:40:58.608Z,79.43
2018-12-07T12:41:58.601Z,79.57
2018-12-07T12:42:58.586Z,79.37
2018-12-07T12:43:58.613Z,79.23
2018-12-07T12:44:58.564Z,79.63
2018-12-07T12:45:58.550Z,79.16
2018-12-07T12:46:58.538Z,79.37
2018-12-07T12:47:58.530Z,79.47
2018-12-07T12:48:58.514Z,79.61
2018-12-07T12:49:58.528Z,80.32
2018-12-07T12:50:58.491Z,80.11
2018-12-07T12:51:58.481Z,79.88